Time;durP1;ratioP1;P1;durP2;ratioP2;P2;SDS_P1;SDS_P2;PMS_P1;PMS_P2;Temp;Humidity;BMP_temperature;BMP_pressure;BME280_temperature;BME280_humidity;BME280_pressure;Samples;Min_cycle;Max_cycle;Signal;HPM_P1;HPM_P2
2022/07/24 00:00:16;;;;;;;4.68;2.67;;;28.70;99.90;;;;;;5033827;28;20451;-49
2022/07/24 00:02:43;;;;;;;5.40;3.00;;;28.70;99.90;;;;;;5031829;28;20026;-49
2022/07/24 00:05:09;;;;;;;;;;;28.70;99.90;;;;;;5033678;28;20022;-49
2022/07/24 00:07:36;;;;;;;4.30;3.03;;;28.70;99.90;;;;;;5033470;28;19993;-49
2022/07/24 00:10:04;;;;;;;3.10;2.67;;;28.70;99.90;;;;;;5033234;28;20040;-49
2022/07/24 00:12:30;;;;;;;4.13;2.80;;;28.70;99.90;;;;;;5032989;28;20266;-49
2022/07/24 00:14:55;;;;;;;3.50;2.40;;;28.60;99.90;;;;;;5033091;28;20026;-49
2022/07/24 00:17:21;;;;;;;4.63;3.00;;;28.60;99.90;;;;;;5033063;28;20109;-49
2022/07/24 00:19:47;;;;;;;5.15;3.33;;;28.60;99.90;;;;;;5032944;28;20025;-49
2022/07/24 00:22:13;;;;;;;6.13;3.13;;;28.60;99.90;;;;;;5032931;28;20026;-49
2022/07/24 00:24:38;;;;;;;3.25;2.67;;;28.60;99.90;;;;;;5032889;28;20523;-49
2022/07/24 00:27:04;;;;;;;3.88;2.83;;;28.60;99.90;;;;;;5032791;28;20030;-49
2022/07/24 00:29:30;;;;;;;4.25;2.95;;;28.60;99.90;;;;;;5032763;28;20516;-49
2022/07/24 00:31:56;;;;;;;5.93;2.90;;;28.60;99.90;;;;;;5032664;28;20022;-49
2022/07/24 00:34:21;;;;;;;4.60;3.33;;;28.50;99.90;;;;;;5032646;28;20029;-49
2022/07/24 00:36:47;;;;;;;5.88;3.33;;;28.50;99.90;;;;;;5031449;28;20032;-49
2022/07/24 00:39:13;;;;;;;6.70;3.03;;;28.50;99.90;;;;;;5032518;28;20382;-49
2022/07/24 00:41:39;;;;;;;4.90;3.33;;;28.50;99.90;;;;;;5031417;28;20386;-49
2022/07/24 00:44:11;;;;;;;3.30;2.92;;;28.50;99.90;;;;;;5032494;28;20093;-49
2022/07/24 00:46:39;;;;;;;4.82;2.42;;;28.50;99.90;;;;;;5032437;28;20048;-49
2022/07/24 00:49:07;;;;;;;4.47;2.50;;;28.50;99.90;;;;;;5032418;28;20033;-49
2022/07/24 00:51:34;;;;;;;5.40;2.20;;;28.50;99.90;;;;;;5032359;28;20561;-50
2022/07/24 00:54:04;;;;;;;;;;;28.50;99.90;;;;;;5032749;28;20101;-49
2022/07/24 00:56:30;;;;;;;6.65;3.13;;;28.50;99.90;;;;;;5032171;28;19984;-49
2022/07/24 00:58:56;;;;;;;3.08;2.53;;;28.40;99.90;;;;;;5032209;28;20511;-49
2022/07/24 01:01:22;;;;;;;5.53;2.70;;;28.40;99.90;;;;;;5027231;23;20054;-51
2022/07/24 01:03:48;;;;;;;9.02;3.55;;;28.50;99.90;;;;;;5011915;28;20433;-51
2022/07/24 01:06:14;;;;;;;6.78;2.90;;;28.50;99.90;;;;;;5012587;28;20030;-51
2022/07/24 01:08:42;;;;;;;3.75;3.17;;;28.40;99.90;;;;;;5012435;28;20513;-50
2022/07/24 01:11:09;;;;;;;3.40;2.28;;;28.40;99.90;;;;;;5012184;28;20034;-51
2022/07/24 01:13:36;;;;;;;5.38;2.95;;;28.40;99.90;;;;;;5012313;28;20385;-51
2022/07/24 01:16:02;;;;;;;5.68;3.22;;;28.40;99.90;;;;;;5012237;28;20033;-50
2022/07/24 01:18:28;;;;;;;5.63;2.83;;;28.40;99.90;;;;;;5027391;28;20026;-50
2022/07/24 01:20:55;;;;;;;4.03;2.95;;;28.50;99.90;;;;;;5012155;28;20026;-50
2022/07/24 01:23:22;;;;;;;4.63;3.10;;;28.50;99.90;;;;;;5011995;28;20105;-50
2022/07/24 01:25:48;;;;;;;5.15;3.33;;;28.50;99.90;;;;;;5012017;28;20393;-50
2022/07/24 01:28:14;;;;;;;4.05;3.05;;;28.50;99.90;;;;;;5012147;28;20038;-50
2022/07/24 01:30:40;;;;;;;4.93;3.10;;;28.50;99.90;;;;;;5011954;28;20060;-51
2022/07/24 01:33:06;;;;;;;7.43;3.30;;;28.50;99.90;;;;;;5011977;28;20060;-51
2022/07/24 01:35:32;;;;;;;7.78;3.40;;;28.50;99.90;;;;;;5010489;28;20026;-51
2022/07/24 01:37:58;;;;;;;6.30;2.78;;;28.50;99.90;;;;;;5011734;28;20033;-50
2022/07/24 01:40:24;;;;;;;4.97;3.60;;;28.60;99.90;;;;;;5011962;28;20018;-51
2022/07/24 01:42:49;;;;;;;5.20;2.70;;;28.50;99.90;;;;;;5011815;28;20041;-51
2022/07/24 01:45:16;;;;;;;3.95;3.30;;;28.60;99.90;;;;;;5011897;28;20430;-51
2022/07/24 01:47:43;;;;;;;7.80;3.10;;;28.60;99.90;;;;;;5011910;28;20022;-51
2022/07/24 01:50:10;;;;;;;8.07;3.50;;;28.60;99.90;;;;;;5011673;28;20156;-51
2022/07/24 01:52:37;;;;;;;7.00;3.72;;;28.60;99.90;;;;;;5011779;28;20603;-51
2022/07/24 01:55:03;;;;;;;6.95;2.97;;;28.60;99.90;;;;;;5011779;28;20539;-51
2022/07/24 01:57:29;;;;;;;5.07;3.20;;;28.60;99.90;;;;;;5011656;28;20054;-52
2022/07/24 01:59:55;;;;;;;5.65;2.90;;;28.60;99.90;;;;;;5028438;22;20076;-49
2022/07/24 02:02:20;;;;;;;4.32;2.88;;;28.60;99.90;;;;;;5031245;28;20032;-49
2022/07/24 02:04:46;;;;;;;3.47;2.67;;;28.60;99.90;;;;;;5046768;28;20493;-49
2022/07/24 02:07:12;;;;;;;3.60;2.78;;;28.60;99.90;;;;;;5031198;28;20436;-49
2022/07/24 02:09:38;;;;;;;3.15;2.60;;;28.60;99.90;;;;;;5031097;28;20037;-49
2022/07/24 02:12:04;;;;;;;3.10;2.80;;;28.60;99.90;;;;;;5031180;28;20269;-49
2022/07/24 02:14:30;;;;;;;4.82;3.00;;;28.60;99.90;;;;;;5031233;28;20108;-49
2022/07/24 02:16:55;;;;;;;5.68;3.15;;;28.60;99.90;;;;;;5034240;28;20521;-49
2022/07/24 02:19:23;;;;;;;7.20;2.83;;;28.60;99.90;;;;;;5035364;28;20029;-49
2022/07/24 02:21:48;;;;;;;5.50;2.95;;;28.60;99.90;;;;;;5035197;28;20477;-49
2022/07/24 02:24:14;;;;;;;3.90;2.58;;;28.60;99.90;;;;;;5035551;28;20036;-49
2022/07/24 02:26:40;;;;;;;4.15;3.10;;;28.60;99.90;;;;;;5035057;28;20442;-49
2022/07/24 02:29:05;;;;;;;4.65;2.65;;;28.60;99.90;;;;;;5035002;28;20038;-49
2022/07/24 02:31:31;;;;;;;5.82;3.03;;;28.60;99.90;;;;;;5034928;28;20026;-49
2022/07/24 02:33:57;;;;;;;3.08;2.78;;;28.60;99.90;;;;;;5034996;28;20029;-49
2022/07/24 02:36:23;;;;;;;6.93;2.58;;;28.60;99.90;;;;;;5034844;28;20021;-49
2022/07/24 02:38:51;;;;;;;8.55;2.88;;;28.60;99.90;;;;;;5035172;28;20025;-49
2022/07/24 02:41:17;;;;;;;5.32;2.30;;;28.60;99.90;;;;;;5034996;28;20104;-49
2022/07/24 02:43:43;;;;;;;5.43;2.78;;;28.60;99.90;;;;;;5033512;28;20034;-49
2022/07/24 02:46:09;;;;;;;4.97;2.90;;;28.60;99.90;;;;;;5034660;28;20021;-49
2022/07/24 02:48:35;;;;;;;7.00;2.60;;;28.60;99.90;;;;;;5034554;28;20044;-49
2022/07/24 02:51:00;;;;;;;5.30;2.47;;;28.50;99.90;;;;;;5034594;28;20473;-49
2022/07/24 02:53:26;;;;;;;5.32;2.97;;;28.50;99.90;;;;;;5034576;28;20025;-49
2022/07/24 02:55:52;;;;;;;4.32;2.53;;;28.40;99.90;;;;;;5034664;28;20116;-49
2022/07/24 02:58:18;;;;;;;4.20;2.63;;;28.40;99.90;;;;;;5050094;28;20528;-49
2022/07/24 03:00:44;;;;;;;5.55;3.22;;;28.40;99.90;;;;;;5034778;28;20139;-49
2022/07/24 03:03:10;;;;;;;9.02;3.03;;;28.40;99.90;;;;;;5034519;28;20022;-49
2022/07/24 03:05:35;;;;;;;4.40;2.60;;;28.40;99.90;;;;;;5034423;28;20061;-49
2022/07/24 03:08:01;;;;;;;5.18;2.92;;;28.40;99.90;;;;;;5034325;28;20025;-49
2022/07/24 03:10:27;;;;;;;3.70;2.55;;;28.40;99.90;;;;;;5034100;28;20111;-49
2022/07/24 03:12:53;;;;;;;3.85;2.78;;;28.40;99.90;;;;;;5034213;28;20032;-49
2022/07/24 03:15:18;;;;;;;4.38;2.80;;;28.40;99.90;;;;;;5034367;28;20393;-49
2022/07/24 03:17:50;;;;;;;3.15;2.70;;;28.40;99.90;;;;;;5032692;28;20128;-49
2022/07/24 03:20:16;;;;;;;4.53;2.47;;;28.40;99.90;;;;;;5033952;28;20038;-49
2022/07/24 03:22:42;;;;;;;2.67;2.40;;;28.40;99.90;;;;;;5033972;28;20105;-49
2022/07/24 03:25:08;;;;;;;3.03;2.72;;;28.40;99.90;;;;;;5033990;28;20026;-49
2022/07/24 03:27:33;;;;;;;6.65;2.40;;;28.40;99.90;;;;;;5033459;28;20378;-49
2022/07/24 03:29:59;;;;;;;3.17;2.75;;;28.40;99.90;;;;;;5033720;28;20189;-49
2022/07/24 03:32:25;;;;;;;3.40;2.45;;;28.30;99.90;;;;;;5033838;28;20028;-49
2022/07/24 03:34:51;;;;;;;2.40;2.20;;;28.30;99.90;;;;;;5034050;28;20444;-49
2022/07/24 03:37:16;;;;;;;4.40;2.40;;;28.30;99.90;;;;;;5033729;28;20381;-50
2022/07/24 03:39:42;;;;;;;4.72;2.65;;;28.30;99.90;;;;;;5033732;28;20456;-49
2022/07/24 03:42:08;;;;;;;3.15;2.67;;;28.30;99.90;;;;;;5033766;28;20104;-49
2022/07/24 03:44:33;;;;;;;3.08;2.47;;;28.30;99.90;;;;;;5033601;28;20038;-49
2022/07/24 03:46:59;;;;;;;3.97;2.40;;;28.30;99.90;;;;;;5033598;28;20025;-49
2022/07/24 03:49:25;;;;;;;3.25;2.45;;;28.30;99.90;;;;;;5033620;28;20034;-49
2022/07/24 03:51:51;;;;;;;4.65;2.38;;;28.30;99.90;;;;;;5033764;28;20021;-49
2022/07/24 03:54:17;;;;;;;5.00;2.60;;;28.30;99.90;;;;;;5033608;28;20036;-49
2022/07/24 03:56:42;;;;;;;2.85;2.35;;;28.30;99.90;;;;;;5033453;28;20517;-49
2022/07/24 03:59:08;;;;;;;4.55;2.50;;;28.30;99.90;;;;;;5033372;28;20044;-49
2022/07/24 04:01:34;;;;;;;2.97;2.30;;;28.30;99.90;;;;;;5034188;28;20099;-49
2022/07/24 04:04:04;;;;;;;4.18;2.33;;;28.30;99.90;;;;;;5033360;28;20076;-49
2022/07/24 04:06:32;;;;;;;4.15;2.10;;;28.30;99.90;;;;;;5033230;28;20018;-49
2022/07/24 04:08:59;;;;;;;4.05;2.22;;;28.30;99.90;;;;;;5033232;28;20041;-49
2022/07/24 04:11:25;;;;;;;3.42;2.50;;;28.30;99.90;;;;;;5033419;28;20465;-49
2022/07/24 04:13:50;;;;;;;3.92;2.53;;;28.30;99.90;;;;;;5033269;28;20108;-50
2022/07/24 04:16:16;;;;;;;8.60;5.75;;;28.30;99.90;;;;;;5048415;28;20121;-50
2022/07/24 04:18:42;;;;;;;4.40;3.78;;;28.30;99.90;;;;;;5031861;28;20044;-49
2022/07/24 04:21:08;;;;;;;5.43;3.03;;;28.30;99.90;;;;;;5033023;28;20021;-50
2022/07/24 04:23:34;;;;;;;4.70;3.05;;;28.30;99.90;;;;;;5032862;28;20083;-49
2022/07/24 04:26:00;;;;;;;2.97;2.78;;;28.40;99.90;;;;;;5031686;28;20022;-49
2022/07/24 04:28:25;;;;;;;4.22;3.13;;;28.40;99.90;;;;;;5032898;28;20493;-49
2022/07/24 04:30:51;;;;;;;5.63;2.65;;;28.40;99.90;;;;;;5033016;28;20034;-49
2022/07/24 04:33:17;;;;;;;3.22;2.92;;;28.50;99.90;;;;;;5032746;28;20381;-50
2022/07/24 04:35:43;;;;;;;5.25;3.45;;;28.50;99.90;;;;;;5032559;28;20026;-50
2022/07/24 04:38:09;;;;;;;4.43;3.53;;;28.40;99.90;;;;;;5031867;28;20104;-49
2022/07/24 04:40:35;;;;;;;4.50;3.58;;;28.50;99.90;;;;;;5032528;28;20401;-50
2022/07/24 04:43:01;;;;;;;5.35;3.53;;;28.50;99.90;;;;;;5032578;28;20080;-49
2022/07/24 04:45:27;;;;;;;7.35;3.65;;;28.50;99.90;;;;;;5032683;28;20025;-49
2022/07/24 04:47:53;;;;;;;6.95;3.92;;;28.60;99.90;;;;;;5047787;28;20439;-50
2022/07/24 04:50:19;;;;;;;4.05;3.67;;;28.60;99.90;;;;;;5032439;28;20029;-50
2022/07/24 04:52:44;;;;;;;4.13;3.58;;;28.60;99.90;;;;;;5032404;28;20124;-50
2022/07/24 04:55:11;;;;;;;4.47;3.70;;;28.60;99.90;;;;;;5032268;28;20029;-50
2022/07/24 04:57:36;;;;;;;6.38;4.05;;;28.60;99.90;;;;;;5032295;28;20025;-49
2022/07/24 05:00:05;;;;;;;7.82;4.97;;;28.60;99.90;;;;;;5032115;28;20057;-49
2022/07/24 05:02:31;;;;;;;8.30;4.97;;;28.60;99.90;;;;;;5032282;28;20025;-50
2022/07/24 05:04:56;;;;;;;6.03;5.15;;;28.60;99.90;;;;;;5032414;28;20477;-49
2022/07/24 05:07:22;;;;;;;7.35;4.38;;;28.60;99.90;;;;;;5032114;28;20393;-50
2022/07/24 05:09:48;;;;;;;7.28;4.20;;;28.60;99.90;;;;;;5031967;28;20034;-50
2022/07/24 05:12:13;;;;;;;9.70;4.43;;;28.60;99.90;;;;;;5031830;28;20034;-50
2022/07/24 05:14:39;;;;;;;6.00;3.72;;;28.60;99.90;;;;;;5031878;28;20087;-50
2022/07/24 05:17:05;;;;;;;5.18;3.72;;;28.60;99.90;;;;;;5031803;28;20075;-50
2022/07/24 05:19:31;;;;;;;4.40;3.78;;;28.60;99.90;;;;;;5032161;28;20112;-50
2022/07/24 05:21:56;;;;;;;4.40;3.28;;;28.60;99.90;;;;;;5031989;28;20028;-49
2022/07/24 05:24:24;;;;;;;7.05;3.40;;;28.60;99.90;;;;;;5031904;28;20373;-50
2022/07/24 05:26:50;;;;;;;5.10;3.45;;;28.60;99.90;;;;;;5031831;28;20056;-49
2022/07/24 05:29:16;;;;;;;4.03;3.65;;;28.60;99.90;;;;;;5031689;28;20033;-50
2022/07/24 05:31:42;;;;;;;5.35;3.50;;;28.60;99.90;;;;;;5031742;28;20044;-50
2022/07/24 05:34:08;;;;;;;4.90;3.55;;;28.50;99.90;;;;;;5031702;28;20461;-50
2022/07/24 05:36:35;;;;;;;9.95;4.10;;;28.50;99.90;;;;;;5031394;28;20014;-50
2022/07/24 05:39:01;;;;;;;7.68;3.97;;;28.50;99.90;;;;;;5031789;28;20032;-49
2022/07/24 05:41:26;;;;;;;8.52;4.25;;;28.50;99.90;;;;;;5031696;28;20408;-49
2022/07/24 05:43:53;;;;;;;8.60;4.22;;;28.50;99.90;;;;;;5031512;28;20466;-50
2022/07/24 05:46:19;;;;;;;6.88;3.95;;;28.50;99.90;;;;;;5031521;28;20366;-49
2022/07/24 05:48:45;;;;;;;13.38;3.67;;;28.50;99.90;;;;;;5031329;28;20106;-49
2022/07/24 05:51:11;;;;;;;10.25;3.45;;;28.40;99.90;;;;;;5031161;28;20465;-50
2022/07/24 05:53:37;;;;;;;7.15;3.63;;;28.50;99.90;;;;;;5031479;28;20112;-50
2022/07/24 05:56:03;;;;;;;9.23;3.60;;;28.40;99.90;;;;;;5031294;28;20108;-50
2022/07/24 05:58:29;;;;;;;8.00;4.07;;;28.40;99.90;;;;;;5031476;28;20040;-50
2022/07/24 06:00:55;;;;;;;7.40;3.28;;;28.40;99.90;;;;;;5031141;28;20282;-50
2022/07/24 06:03:21;;;;;;;3.88;3.20;;;28.40;99.90;;;;;;5031198;28;20066;-49
2022/07/24 06:05:47;;;;;;;11.00;4.13;;;28.40;99.90;;;;;;5031454;28;20109;-50
2022/07/24 06:08:13;;;;;;;5.60;3.53;;;28.40;99.90;;;;;;5031157;28;20029;-49
2022/07/24 06:10:39;;;;;;;10.40;3.50;;;28.30;99.90;;;;;;5031275;28;20022;-50
2022/07/24 06:13:05;;;;;;;8.55;3.55;;;28.30;99.90;;;;;;5031255;28;20470;-50
2022/07/24 06:15:30;;;;;;;7.22;3.65;;;28.40;99.90;;;;;;5031477;28;20033;-50
2022/07/24 06:17:56;;;;;;;7.50;4.05;;;28.30;99.90;;;;;;5031193;28;20093;-50
2022/07/24 06:20:22;;;;;;;6.03;3.33;;;28.30;99.90;;;;;;5031206;28;20034;-50
2022/07/24 06:22:48;;;;;;;5.78;3.53;;;28.30;99.90;;;;;;5031090;28;20028;-50
2022/07/24 06:25:14;;;;;;;5.38;3.42;;;28.30;99.90;;;;;;5031077;28;20100;-50
2022/07/24 06:27:49;;;;;;;7.45;3.75;;;28.30;99.90;;;;;;5030937;28;20026;-49
2022/07/24 06:30:26;;;;;;;7.63;3.72;;;28.30;99.90;;;;;;5031064;28;20041;-49
2022/07/24 06:32:54;;;;;;;8.25;3.80;;;28.30;99.90;;;;;;5030962;28;20029;-49
2022/07/24 06:35:21;;;;;;;7.43;4.13;;;28.30;99.90;;;;;;5046221;28;20025;-49
2022/07/24 06:37:46;;;;;;;6.75;5.05;;;28.30;99.90;;;;;;5030971;28;20465;-49
2022/07/24 06:40:12;;;;;;;8.75;5.45;;;28.30;99.90;;;;;;5031021;28;20026;-50
2022/07/24 06:42:38;;;;;;;7.05;5.70;;;28.30;99.90;;;;;;5030908;28;20018;-50
2022/07/24 06:45:06;;;;;;;8.00;6.40;;;28.40;99.90;;;;;;5031082;28;20033;-50
2022/07/24 06:47:31;;;;;;;6.22;5.63;;;28.30;99.90;;;;;;5031113;28;20497;-50
2022/07/24 06:49:57;;;;;;;8.50;6.82;;;28.40;99.90;;;;;;5030775;28;20048;-49
2022/07/24 06:52:23;;;;;;;10.45;7.85;;;28.40;99.90;;;;;;5029414;28;20021;-50
2022/07/24 06:54:49;;;;;;;8.80;7.90;;;28.40;99.90;;;;;;5030833;28;20083;-50
2022/07/24 06:57:16;;;;;;;9.80;6.43;;;28.40;99.90;;;;;;5029458;28;20108;-50
2022/07/24 06:59:42;;;;;;;9.02;7.57;;;28.40;99.90;;;;;;5030496;28;20033;-50
2022/07/24 07:02:08;;;;;;;14.13;8.02;;;28.50;99.90;;;;;;5032114;28;20072;-51
2022/07/24 07:04:34;;;;;;;11.13;8.00;;;28.40;99.90;;;;;;5034466;28;20048;-50
2022/07/24 07:07:00;;;;;;;8.23;7.43;;;28.50;99.90;;;;;;5034347;28;20054;-50
2022/07/24 07:09:26;;;;;;;10.05;7.82;;;28.50;99.90;;;;;;5034316;28;20043;-52
2022/07/24 07:11:52;;;;;;;8.23;7.35;;;28.50;99.90;;;;;;5033999;28;20033;-49
2022/07/24 07:14:18;;;;;;;7.20;6.30;;;28.50;99.90;;;;;;5032860;28;20117;-50
2022/07/24 07:16:43;;;;;;;12.10;7.75;;;28.50;99.90;;;;;;5032716;28;20072;-50
2022/07/24 07:19:09;;;;;;;9.82;7.85;;;28.50;99.90;;;;;;5033831;28;20025;-50
2022/07/24 07:21:36;;;;;;;7.25;6.55;;;28.60;99.90;;;;;;5032879;28;20090;-50
2022/07/24 07:24:02;;;;;;;8.65;6.45;;;28.60;99.90;;;;;;5034001;28;20033;-50
2022/07/24 07:26:28;;;;;;;7.32;6.63;;;28.60;99.90;;;;;;5033840;28;20037;-50
2022/07/24 07:28:53;;;;;;;7.53;6.07;;;28.60;99.90;;;;;;5033749;28;20397;-50
2022/07/24 07:31:19;;;;;;;12.10;7.40;;;28.60;99.90;;;;;;5033889;28;20143;-50
2022/07/24 07:33:45;;;;;;;7.05;6.13;;;28.60;99.90;;;;;;5033807;28;20021;-50
2022/07/24 07:36:11;;;;;;;10.75;8.43;;;28.60;99.90;;;;;;5033751;28;20484;-50
2022/07/24 07:38:38;;;;;;;10.18;8.15;;;28.60;99.90;;;;;;5033845;28;20453;-50
2022/07/24 07:41:05;;;;;;;13.73;8.25;;;28.60;99.90;;;;;;5033777;28;20026;-50
2022/07/24 07:43:30;;;;;;;11.45;7.57;;;28.70;99.90;;;;;;5033623;28;20034;-50
2022/07/24 07:45:56;;;;;;;8.23;7.47;;;28.60;99.90;;;;;;5033425;28;20044;-50
2022/07/24 07:48:22;;;;;;;8.52;7.72;;;28.70;99.90;;;;;;5033445;28;20112;-50
2022/07/24 07:50:48;;;;;;;10.32;6.18;;;28.70;99.90;;;;;;5033441;28;20030;-50
2022/07/24 07:53:14;;;;;;;12.05;9.10;;;28.70;99.90;;;;;;5033226;28;20026;-50
2022/07/24 07:55:39;;;;;;;11.85;9.35;;;28.70;99.90;;;;;;5033377;28;20461;-49
2022/07/24 07:58:05;;;;;;;10.43;9.40;;;28.80;99.90;;;;;;5033475;28;20032;-50
2022/07/24 08:00:32;;;;;;;11.02;10.00;;;28.80;99.90;;;;;;5032901;28;20084;-49
2022/07/24 08:02:59;;;;;;;7.43;6.72;;;28.80;99.90;;;;;;5032993;28;20033;-50
2022/07/24 08:05:24;;;;;;;7.90;6.72;;;28.80;99.90;;;;;;5031818;28;20053;-50
2022/07/24 08:07:50;;;;;;;8.63;7.32;;;28.80;99.90;;;;;;5032818;28;20045;-50
2022/07/24 08:10:16;;;;;;;10.88;8.90;;;28.80;99.90;;;;;;5032878;28;20033;-50
2022/07/24 08:12:42;;;;;;;8.77;7.85;;;28.80;99.90;;;;;;5032712;28;20091;-50
2022/07/24 08:15:09;;;;;;;16.08;10.10;;;28.80;99.90;;;;;;5033121;28;20094;-50
2022/07/24 08:17:34;;;;;;;10.75;8.68;;;28.80;99.90;;;;;;5032777;28;20036;-50
2022/07/24 08:20:01;;;;;;;9.43;8.52;;;28.80;99.90;;;;;;5032768;28;20034;-50
2022/07/24 08:22:26;;;;;;;10.23;8.50;;;28.80;99.90;;;;;;5032764;28;20029;-50
2022/07/24 08:24:52;;;;;;;9.13;7.95;;;28.80;99.90;;;;;;5032621;28;20033;-50
2022/07/24 08:27:18;;;;;;;9.65;8.57;;;28.90;99.90;;;;;;5032556;28;20026;-50
2022/07/24 08:29:43;;;;;;;12.43;11.32;;;28.80;99.90;;;;;;5032504;28;20044;-50
2022/07/24 08:32:09;;;;;;;12.38;11.18;;;28.80;99.90;;;;;;5032722;28;20048;-50
2022/07/24 08:34:35;;;;;;;12.35;11.20;;;28.80;99.90;;;;;;5032308;28;20022;-50
2022/07/24 08:37:01;;;;;;;13.90;10.80;;;28.90;99.90;;;;;;5032349;28;20484;-50
2022/07/24 08:39:26;;;;;;;12.10;10.07;;;28.90;99.90;;;;;;5032443;28;20485;-49
2022/07/24 08:41:52;;;;;;;14.30;12.68;;;28.90;99.90;;;;;;5032347;28;20053;-50
2022/07/24 08:44:18;;;;;;;17.70;16.02;;;28.90;99.90;;;;;;5032216;28;20022;-50
2022/07/24 08:46:44;;;;;;;15.32;13.95;;;28.90;99.90;;;;;;5032102;28;20022;-50
2022/07/24 08:49:11;;;;;;;15.77;14.27;;;28.90;99.90;;;;;;5032547;28;20040;-50
2022/07/24 08:51:39;;;;;;;15.15;13.55;;;28.90;99.90;;;;;;5032128;28;20029;-50
2022/07/24 08:54:06;;;;;;;13.32;12.05;;;28.90;99.90;;;;;;5032074;28;20465;-50
2022/07/24 08:56:36;;;;;;;14.70;12.98;;;28.90;99.90;;;;;;5031987;28;20030;-49
2022/07/24 08:59:03;;;;;;;13.23;12.07;;;28.90;99.90;;;;;;5031893;28;20029;-50
2022/07/24 09:01:29;;;;;;;11.98;10.88;;;28.90;99.90;;;;;;5031781;28;20057;-50
2022/07/24 09:03:55;;;;;;;11.82;10.63;;;28.90;99.90;;;;;;5031755;28;20025;-50
2022/07/24 09:06:21;;;;;;;11.43;10.38;;;28.90;99.90;;;;;;5031616;28;20560;-50
2022/07/24 09:09:02;;;;;;;11.70;10.50;;;28.90;99.90;;;;;;5031580;28;20029;-50
2022/07/24 09:11:30;;;;;;;9.15;8.25;;;28.90;99.90;;;;;;5031290;28;20180;-50
2022/07/24 09:16:47;;;;;;;9.75;8.77;;;29.00;99.90;;;;;;5031469;28;20583;-51
2022/07/24 09:19:15;;;;;;;9.73;8.80;;;29.00;99.90;;;;;;5031693;28;20025;-50
2022/07/24 09:21:42;;;;;;;12.18;10.27;;;29.00;99.90;;;;;;5031682;28;20085;-50
2022/07/24 09:24:17;;;;;;;11.63;10.40;;;29.00;99.90;;;;;;5031106;28;20060;-50
2022/07/24 09:26:48;;;;;;;9.63;8.73;;;29.00;99.90;;;;;;5046700;28;20025;-50
2022/07/24 09:29:15;;;;;;;13.68;12.27;;;29.00;99.90;;;;;;5031342;28;20047;-50
2022/07/24 09:32:10;;;;;;;13.10;10.65;;;29.00;99.90;;;;;;5031433;28;20036;-50
2022/07/24 09:34:40;;;;;;;12.13;10.68;;;29.10;99.90;;;;;;5026509;28;20052;-50
2022/07/24 09:37:07;;;;;;;12.43;10.02;;;29.10;99.90;;;;;;5046418;28;20026;-50
2022/07/24 09:39:36;;;;;;;10.45;8.60;;;29.10;99.90;;;;;;5046764;28;20034;-50
2022/07/24 09:42:04;;;;;;;9.50;8.35;;;29.10;99.90;;;;;;5046548;28;20029;-50
2022/07/24 09:44:30;;;;;;;8.50;7.63;;;29.10;99.90;;;;;;5029996;28;20029;-49
2022/07/24 09:47:08;;;;;;;7.18;6.47;;;29.10;99.90;;;;;;5031177;28;20028;-50
2022/07/24 09:49:35;;;;;;;7.80;6.68;;;29.10;99.90;;;;;;5031036;28;20560;-50
2022/07/24 09:52:15;;;;;;;6.30;5.45;;;29.10;99.90;;;;;;5031038;28;20033;-50
2022/07/24 09:54:48;;;;;;;6.35;5.45;;;29.20;99.90;;;;;;5029589;28;20108;-49
2022/07/24 09:57:28;;;;;;;6.65;5.80;;;29.20;99.90;;;;;;5031072;28;20026;-49
2022/07/24 09:59:55;;;;;;;6.13;5.53;;;29.20;99.90;;;;;;5030623;28;20029;-49
2022/07/24 10:02:22;;;;;;;;;;;29.20;99.90;;;;;;5031386;28;20045;-50
2022/07/24 10:04:50;;;;;;;7.28;6.10;;;29.30;99.90;;;;;;5030980;28;20383;-50
2022/07/24 10:07:19;;;;;;;10.23;6.47;;;29.30;99.90;;;;;;5031312;28;20033;-50
2022/07/24 10:09:48;;;;;;;10.68;6.80;;;29.30;99.90;;;;;;5030995;28;20689;-50
2022/07/24 10:12:19;;;;;;;10.95;9.38;;;29.30;99.90;;;;;;5031123;28;20541;-50
2022/07/24 10:14:47;;;;;;;10.88;7.30;;;29.30;99.90;;;;;;5030986;28;20108;-50
2022/07/24 10:17:14;;;;;;;7.18;5.75;;;29.30;99.90;;;;;;5030841;28;20477;-50
2022/07/24 10:19:51;;;;;;;7.28;5.50;;;29.30;99.90;;;;;;5030903;28;20033;-50
2022/07/24 10:22:19;;;;;;;6.60;5.63;;;29.30;99.90;;;;;;5031132;28;20065;-50
2022/07/24 10:25:04;;;;;;;10.32;6.28;;;29.40;99.90;;;;;;5030833;28;20116;-50
2022/07/24 10:27:35;;;;;;;9.02;7.28;;;29.40;99.90;;;;;;5029578;28;20025;-50
2022/07/24 10:30:07;;;;;;;6.22;5.63;;;29.40;99.90;;;;;;5030714;28;20040;-50
2022/07/24 10:32:34;;;;;;;7.80;4.75;;;29.40;99.90;;;;;;5030619;28;20100;-51
2022/07/24 10:35:09;;;;;;;5.40;4.90;;;29.40;99.90;;;;;;5030576;28;20025;-50
2022/07/24 10:37:45;;;;;;;7.55;4.90;;;29.40;99.90;;;;;;5032885;28;20113;-50
2022/07/24 10:40:29;;;;;;;10.25;6.30;;;29.50;99.90;;;;;;5034641;28;20327;-50
2022/07/24 10:43:21;;;;;;;7.30;4.78;;;29.40;99.90;;;;;;5034427;28;20048;-50
2022/07/24 10:45:53;;;;;;;7.13;5.30;;;29.50;99.90;;;;;;5035943;28;20041;-50
2022/07/24 10:48:25;;;;;;;6.32;5.13;;;29.50;99.90;;;;;;5034629;28;20053;-53
2022/07/24 10:50:57;;;;;;;6.80;5.13;;;29.50;99.90;;;;;;5034690;28;20022;-50
2022/07/24 10:53:47;;;;;;;6.00;5.40;;;29.50;99.90;;;;;;5034398;28;20022;-50
2022/07/24 10:56:20;;;;;;;5.90;4.78;;;29.50;99.90;;;;;;5039233;28;20120;-50
2022/07/24 10:58:56;;;;;;;10.50;4.75;;;29.50;99.90;;;;;;5034341;28;20057;-50
2022/07/24 11:01:47;;;;;;;5.90;4.78;;;29.50;99.90;;;;;;5034237;28;20050;-49
2022/07/24 11:04:22;;;;;;;6.50;5.10;;;29.50;99.90;;;;;;5034364;28;20057;-50
2022/07/24 11:06:59;;;;;;;6.95;5.15;;;29.60;99.90;;;;;;5034412;28;20028;-50
2022/07/24 11:09:27;;;;;;;12.00;4.75;;;29.60;99.90;;;;;;5034084;28;20040;-50
2022/07/24 11:11:53;;;;;;;6.53;5.90;;;29.60;99.90;;;;;;5034077;28;20105;-50
2022/07/24 11:14:38;;;;;;;10.77;5.97;;;29.60;99.90;;;;;;5034192;28;20492;-49
2022/07/24 11:17:40;;;;;;;8.13;5.85;;;29.70;99.90;;;;;;5034001;28;20028;-50
2022/07/24 11:20:11;;;;;;;7.47;5.55;;;29.70;99.90;;;;;;5045196;28;20048;-49
2022/07/24 11:22:49;;;;;;;5.15;4.70;;;29.70;99.90;;;;;;5033669;28;20543;-50
2022/07/24 11:25:23;;;;;;;7.78;5.10;;;29.70;99.90;;;;;;5033730;28;20037;-50
2022/07/24 11:27:52;;;;;;;6.82;4.60;;;29.70;99.90;;;;;;5033952;28;20473;-50
2022/07/24 11:30:20;;;;;;;8.07;4.78;;;29.70;99.90;;;;;;5033697;28;20397;-49
2022/07/24 11:32:46;;;;;;;5.95;4.93;;;29.70;99.90;;;;;;5033703;28;20025;-49
2022/07/24 11:35:12;;;;;;;9.53;6.27;;;29.70;99.90;;;;;;5033580;28;20428;-49
2022/07/24 11:37:41;;;;;;;12.63;7.50;;;29.80;99.90;;;;;;5033573;28;20049;-49
2022/07/24 11:40:08;;;;;;;10.02;7.07;;;29.80;99.90;;;;;;5033552;28;20013;-50
2022/07/24 11:42:35;;;;;;;10.50;8.43;;;29.80;99.90;;;;;;5033378;28;20025;-49
2022/07/24 11:45:02;;;;;;;9.38;7.45;;;29.80;99.90;;;;;;5033650;28;20049;-49
2022/07/24 11:47:28;;;;;;;9.85;8.20;;;29.80;99.90;;;;;;5032921;28;20038;-49
2022/07/24 11:50:02;;;;;;;10.23;8.38;;;29.70;99.90;;;;;;5033576;28;20037;-49
2022/07/24 11:52:34;;;;;;;12.43;9.43;;;29.70;99.90;;;;;;5033270;28;20021;-49
2022/07/24 11:55:12;;;;;;;11.77;9.90;;;29.70;99.90;;;;;;5033258;28;20025;-49
2022/07/24 11:57:40;;;;;;;13.15;10.32;;;29.60;99.90;;;;;;5033157;28;20021;-49
2022/07/24 12:00:12;;;;;;;14.15;11.02;;;29.60;99.90;;;;;;5032890;28;20049;-50
2022/07/24 12:02:48;;;;;;;13.40;11.95;;;29.70;99.90;;;;;;5032948;28;20026;-49
2022/07/24 12:05:22;;;;;;;13.95;12.60;;;29.70;99.90;;;;;;5033169;28;20068;-49
2022/07/24 12:07:48;;;;;;;21.38;19.27;;;29.70;99.90;;;;;;5032853;28;20064;-50
2022/07/24 12:10:19;;;;;;;33.35;29.20;;;29.60;99.90;;;;;;5032891;28;20068;-49
2022/07/24 12:12:48;;;;;;;56.42;48.00;;;29.60;99.90;;;;;;5032839;28;20017;-49
2022/07/24 12:15:14;;;;;;;19.15;17.23;;;29.60;99.90;;;;;;5032969;28;20040;-49
2022/07/24 12:18:06;;;;;;;14.25;12.65;;;29.50;99.90;;;;;;5032718;28;20355;-49
2022/07/24 12:20:36;;;;;;;15.05;13.50;;;29.50;99.90;;;;;;5032793;28;20099;-49
2022/07/24 12:23:06;;;;;;;16.00;14.45;;;29.50;99.90;;;;;;5032781;28;20028;-50
2022/07/24 12:25:32;;;;;;;18.45;15.35;;;29.40;99.90;;;;;;5032636;28;20370;-50
2022/07/24 12:28:06;;;;;;;62.08;55.40;;;29.40;99.90;;;;;;5032629;28;20052;-50
2022/07/24 12:30:40;;;;;;;17.17;15.52;;;29.40;99.90;;;;;;5032546;28;20041;-50
2022/07/24 12:33:09;;;;;;;29.13;26.00;;;29.30;99.90;;;;;;5032387;28;20029;-50
2022/07/24 12:36:00;;;;;;;14.70;13.30;;;29.30;99.90;;;;;;5032748;28;20033;-50
2022/07/24 12:38:37;;;;;;;19.05;17.23;;;29.30;99.90;;;;;;5033062;28;20026;-49
2022/07/24 12:41:06;;;;;;;19.75;16.65;;;29.30;99.90;;;;;;5032523;28;20022;-50
2022/07/24 12:43:45;;;;;;;14.55;13.05;;;29.30;99.90;;;;;;5032340;28;20105;-50
2022/07/24 12:46:11;;;;;;;16.83;15.13;;;29.30;99.90;;;;;;5032187;28;20044;-50
2022/07/24 12:48:37;;;;;;;13.82;12.45;;;29.30;99.90;;;;;;5032279;28;20029;-49